FBSP

Selebi Phikwe Airport

Botswana
TAF FBSP 240900Z 2412/2421 28008KT CAVOK
Issued Valid From Valid To
Sep-24 @ 09:00 UTC
(5 hours ago)
Sep-24 @ 12:00 UTC
(2 hours ago)
Sep-24 @ 21:00 UTC
(in 7 hours)
Sep-24 @ 12:00 to Sep-24 @ 21:00
TAF FBSP 240900Z 2412/2421 28008KT CAVOK
Wind Visibility Clouds Conditions
280° at 8 knots 10,000+ meters
  • No significant clouds
TAF FBSP 240900Z 2412/2421 28008KT CAVOK
Issued Sep-24 @ 09:00 UTC
(5 hours ago)
Valid From Sep-24 @ 12:00 UTC
(2 hours ago)
Valid To Sep-24 @ 21:00 UTC
(in 7 hours)
Sep-24 @ 12:00 - Sep-24 @ 21:00
Wind Visibility
280° at 8 knots 10,000+ meters
Clouds
  • No significant clouds
Conditions